Time;durP1;ratioP1;P1;durP2;ratioP2;P2;SDS_P1;SDS_P2;PMS_P1;PMS_P2;Temp;Humidity;BMP_temperature;BMP_pressure;BME280_temperature;BME280_humidity;BME280_pressure;Samples;Min_cycle;Max_cycle;Signal;HPM_P1;HPM_P2
2023/06/16 00:02:23;;;;;;;3.65;2.70;;;;;;;17.31;100.00;101958.94;4938761;28;20055;-80
2023/06/16 00:04:52;;;;;;;5.32;3.20;;;;;;;17.30;100.00;101956.31;4947368;28;20044;-80
2023/06/16 00:07:22;;;;;;;2.72;2.53;;;;;;;17.28;100.00;101950.13;4974598;28;20054;-82
2023/06/16 00:09:50;;;;;;;3.53;2.90;;;;;;;17.25;100.00;101953.66;4928857;29;20502;-80
2023/06/16 00:12:18;;;;;;;2.72;2.50;;;;;;;17.25;100.00;101952.78;4884087;29;20059;-80
2023/06/16 00:14:47;;;;;;;2.63;2.42;;;;;;;17.25;100.00;101950.13;4944453;28;20058;-80
2023/06/16 00:17:14;;;;;;;2.60;2.40;;;;;;;17.21;100.00;101951.03;4942236;28;20062;-80
2023/06/16 00:19:43;;;;;;;5.88;3.13;;;;;;;17.20;100.00;101949.25;4950140;29;20054;-80
2023/06/16 00:22:10;;;;;;;2.72;2.53;;;;;;;17.15;100.00;101947.53;4937290;29;20051;-81
2023/06/16 00:24:39;;;;;;;2.50;2.30;;;;;;;17.12;100.00;101952.84;4950565;28;20058;-80
2023/06/16 00:27:06;;;;;;;5.07;2.83;;;;;;;17.07;100.00;101943.13;4895979;29;20090;-80
2023/06/16 00:29:34;;;;;;;4.97;2.65;;;;;;;17.02;100.00;101945.81;4947783;29;20649;-79
2023/06/16 00:32:02;;;;;;;3.92;3.10;;;;;;;16.97;100.00;101946.75;4916341;29;20494;-81
2023/06/16 00:34:29;;;;;;;4.72;3.58;;;;;;;16.93;100.00;101951.22;4932270;29;20051;-79
2023/06/16 00:36:58;;;;;;;6.57;3.63;;;;;;;16.89;100.00;101946.78;4953702;29;20514;-80
2023/06/16 00:39:28;;;;;;;5.50;3.92;;;;;;;16.85;100.00;101943.25;4977045;28;20051;-80
2023/06/16 00:41:55;;;;;;;5.70;4.07;;;;;;;16.83;100.00;101944.19;4952096;29;20498;-79
2023/06/16 00:44:23;;;;;;;4.03;3.67;;;;;;;16.79;100.00;101945.06;4893977;29;20122;-81
2023/06/16 00:46:51;;;;;;;3.63;3.28;;;;;;;16.75;100.00;101931.75;4935041;28;20047;-79
2023/06/16 00:49:19;;;;;;;3.95;3.65;;;;;;;16.71;100.00;101934.41;4928547;29;20519;-79
2023/06/16 00:51:48;;;;;;;4.35;3.70;;;;;;;16.66;100.00;101941.56;4925482;29;20539;-80
2023/06/16 00:54:16;;;;;;;4.18;3.70;;;;;;;16.60;100.00;101937.16;4949554;28;20055;-79
2023/06/16 00:56:45;;;;;;;5.20;4.18;;;;;;;16.55;100.00;101936.28;4940082;29;21092;-80
2023/06/16 00:59:13;;;;;;;4.82;4.22;;;;;;;16.51;100.00;101937.19;4914557;28;20051;-80
2023/06/16 01:01:40;;;;;;;5.18;4.30;;;;;;;16.46;100.00;101936.31;4938259;29;20055;-80
2023/06/16 01:04:09;;;;;;;4.68;4.00;;;;;;;16.40;100.00;101933.69;4940093;28;20043;-80
2023/06/16 01:06:37;;;;;;;5.05;4.28;;;;;;;16.33;100.00;101932.81;4929866;29;20523;-80
2023/06/16 01:09:22;;;;;;;5.93;4.38;;;;;;;16.27;100.00;101933.72;4937582;28;20415;-79
2023/06/16 01:11:56;;;;;;;4.95;4.25;;;;;;;16.24;100.00;101924.84;4930304;29;20058;-78
2023/06/16 01:14:40;;;;;;;8.02;4.75;;;;;;;16.21;100.00;101940.84;4946954;28;20430;-78
2023/06/16 01:17:09;;;;;;;4.97;4.55;;;;;;;16.16;100.00;101933.75;4978522;28;20491;-80
2023/06/16 01:19:50;;;;;;;5.93;5.00;;;;;;;16.11;100.00;101926.69;4956785;28;20055;-80
2023/06/16 01:23:03;;;;;;;5.88;4.93;;;;;;;16.05;100.00;101932.91;4956377;28;20055;-80
2023/06/16 01:25:33;;;;;;;6.25;4.82;;;;;;;15.95;100.00;101931.13;4926709;28;20051;-81
2023/06/16 01:28:03;;;;;;;5.35;4.85;;;;;;;15.90;100.00;101935.59;4951848;29;20074;-80
2023/06/16 01:30:33;;;;;;;10.27;5.45;;;;;;;15.82;100.00;101934.69;4912547;28;20047;-79
2023/06/16 01:33:02;;;;;;;6.63;5.05;;;;;;;15.78;100.00;101933.81;4917556;29;20039;-79
2023/06/16 01:35:31;;;;;;;6.05;5.50;;;;;;;15.75;100.00;101928.53;4933483;29;20090;-81
2023/06/16 01:38:00;;;;;;;10.32;6.13;;;;;;;15.73;100.00;101930.28;4950098;29;20047;-80
2023/06/16 01:40:29;;;;;;;11.25;6.25;;;;;;;15.69;100.00;101925.81;4955911;28;20039;-80
2023/06/16 01:42:58;;;;;;;;;;;;;;;15.65;100.00;101932.94;4919112;29;20636;-81
2023/06/16 01:45:27;;;;;;;6.55;5.95;;;;;;;15.60;100.00;101930.25;4908752;28;19941;-79
2023/06/16 01:47:55;;;;;;;7.00;6.30;;;;;;;15.58;100.00;101925.84;4932217;28;20495;-80
2023/06/16 01:50:23;;;;;;;6.82;6.13;;;;;;;15.54;100.00;101926.75;4949538;29;20067;-79
2023/06/16 01:52:51;;;;;;;6.65;5.78;;;;;;;15.51;100.00;101924.06;4964809;28;20050;-79
2023/06/16 01:55:18;;;;;;;8.10;7.18;;;;;;;15.48;100.00;101924.97;4935246;29;20055;-80
2023/06/16 01:57:47;;;;;;;7.43;6.15;;;;;;;15.44;100.00;101912.53;4948101;28;20161;-79
2023/06/16 02:00:29;;;;;;;7.15;6.45;;;;;;;15.40;100.00;101916.09;4950352;29;20055;-79
2023/06/16 02:03:44;;;;;;;10.25;6.10;;;;;;;15.35;100.00;101916.09;4941545;28;20055;-80
2023/06/16 02:06:21;;;;;;;6.88;6.20;;;;;;;15.30;100.00;101917.88;4955415;28;20054;-80
2023/06/16 02:08:52;;;;;;;7.95;6.78;;;;;;;15.28;100.00;101919.63;4931841;29;20100;-80
2023/06/16 02:11:20;;;;;;;8.55;7.70;;;;;;;15.27;100.00;101924.94;4955299;28;20058;-80
2023/06/16 02:13:49;;;;;;;9.90;7.40;;;;;;;15.26;100.00;101917.88;4944542;28;20051;-80
2023/06/16 02:16:18;;;;;;;8.88;7.97;;;;;;;15.23;100.00;101915.19;4959156;28;20062;-80
2023/06/16 02:18:49;;;;;;;11.02;8.70;;;;;;;15.23;100.00;101920.50;4929850;28;20039;-81
2023/06/16 02:21:16;;;;;;;10.60;8.57;;;;;;;15.24;100.00;101922.28;4939741;28;20051;-80
2023/06/16 02:23:44;;;;;;;9.18;8.15;;;;;;;15.22;100.00;101911.66;4938801;28;20051;-81
2023/06/16 02:26:12;;;;;;;9.75;8.77;;;;;;;15.24;100.00;101906.38;4931603;29;20051;-80
2023/06/16 02:28:39;;;;;;;9.88;9.00;;;;;;;15.24;100.00;101914.34;4933896;28;20062;-81
2023/06/16 02:31:07;;;;;;;9.27;8.38;;;;;;;15.27;100.00;101906.34;4935424;29;20051;-80
2023/06/16 02:33:34;;;;;;;9.18;8.38;;;;;;;15.29;100.00;101907.22;4912806;28;20510;-79
2023/06/16 02:36:02;;;;;;;9.90;8.95;;;;;;;15.30;100.00;101904.59;4934663;28;20124;-80
2023/06/16 02:38:30;;;;;;;12.23;8.90;;;;;;;15.33;100.00;101901.94;4963119;28;20418;-80
2023/06/16 02:40:57;;;;;;;10.48;9.50;;;;;;;15.38;100.00;101901.94;4950607;29;20058;-80
2023/06/16 02:43:25;;;;;;;10.60;9.50;;;;;;;15.42;100.00;101901.03;4958843;28;20411;-81
2023/06/16 02:45:53;;;;;;;10.98;9.82;;;;;;;15.46;100.00;101908.13;4950249;28;20058;-80
2023/06/16 02:48:20;;;;;;;10.63;9.60;;;;;;;15.47;100.00;101907.25;4878803;29;20063;-79
2023/06/16 02:50:51;;;;;;;12.18;10.63;;;;;;;15.50;100.00;101907.25;4956864;28;20055;-80
2023/06/16 02:53:19;;;;;;;15.45;10.40;;;;;;;15.53;100.00;101907.22;4948877;28;20059;-79
2023/06/16 02:55:47;;;;;;;11.13;10.00;;;;;;;15.54;100.00;101895.72;4931554;29;20047;-80
2023/06/16 02:58:18;;;;;;;;;;;;;;;15.52;100.00;101897.50;4934109;29;20050;-79
2023/06/16 03:00:45;;;;;;;10.75;9.68;;;;;;;15.53;100.00;101882.44;4939959;28;19930;-80
2023/06/16 03:03:26;;;;;;;12.88;9.00;;;;;;;15.54;100.00;101893.06;4896912;29;20054;-82
2023/06/16 03:06:03;;;;;;;12.23;11.02;;;;;;;15.54;100.00;101895.72;4961866;28;20043;-80
2023/06/16 03:08:33;;;;;;;11.02;9.93;;;;;;;15.53;100.00;101891.28;4936912;28;20055;-81
2023/06/16 03:11:01;;;;;;;10.80;9.70;;;;;;;15.52;100.00;101893.94;4934664;29;20055;-80
2023/06/16 03:13:37;;;;;;;13.48;11.38;;;;;;;15.51;100.00;101895.72;4948254;29;20051;-80
2023/06/16 03:16:06;;;;;;;13.77;11.15;;;;;;;15.52;100.00;101891.28;4941706;28;20406;-79
2023/06/16 03:18:34;;;;;;;13.43;11.48;;;;;;;15.50;100.00;101895.72;4905469;28;20898;-79
2023/06/16 03:21:02;;;;;;;13.70;12.13;;;;;;;15.49;100.00;101902.81;4944470;29;20044;-79
2023/06/16 03:23:35;;;;;;;13.02;11.70;;;;;;;15.49;100.00;101896.63;4946618;28;20055;-80
2023/06/16 03:26:03;;;;;;;13.93;12.48;;;;;;;15.47;100.00;101893.09;4935244;29;20557;-79
2023/06/16 03:28:51;;;;;;;12.82;11.30;;;;;;;15.46;100.00;101893.97;4968302;28;20063;-80
2023/06/16 03:31:19;;;;;;;13.20;12.00;;;;;;;15.44;100.00;101893.06;4947381;28;20047;-81
2023/06/16 03:33:47;;;;;;;13.35;12.05;;;;;;;15.44;100.00;101899.25;4908294;28;20098;-80
2023/06/16 03:36:16;;;;;;;13.82;11.90;;;;;;;15.46;100.00;101888.66;4951396;28;20060;-80
2023/06/16 03:38:44;;;;;;;14.05;12.65;;;;;;;15.45;100.00;101889.53;4955797;28;20745;-80
2023/06/16 03:41:12;;;;;;;14.40;12.98;;;;;;;15.44;100.00;101891.28;4950320;28;20070;-80
2023/06/16 03:43:40;;;;;;;14.65;12.55;;;;;;;15.43;100.00;101891.31;4951197;28;20465;-80
2023/06/16 03:46:07;;;;;;;18.58;15.82;;;;;;;15.44;100.00;101893.06;4978291;28;20036;-80
2023/06/16 03:48:36;;;;;;;14.70;13.27;;;;;;;15.44;100.00;101898.38;4883962;28;20059;-79
2023/06/16 03:51:05;;;;;;;17.77;13.73;;;;;;;15.42;100.00;101890.41;4952158;28;20498;-80
2023/06/16 03:53:39;;;;;;;15.05;13.40;;;;;;;15.40;100.00;101890.41;4933312;29;20086;-80
2023/06/16 03:56:07;;;;;;;12.75;11.48;;;;;;;15.39;100.00;101887.78;4932063;28;20410;-80
2023/06/16 03:58:36;;;;;;;17.88;12.43;;;;;;;15.41;100.00;101891.31;4940829;29;20058;-79
2023/06/16 04:01:06;;;;;;;16.80;15.00;;;;;;;15.45;100.00;101889.53;4929611;28;20050;-79
2023/06/16 04:03:33;;;;;;;18.30;14.40;;;;;;;15.52;100.00;101893.94;4926335;28;20051;-80
2023/06/16 04:06:03;;;;;;;18.90;14.77;;;;;;;15.73;100.00;101895.72;4930369;28;20055;-80
2023/06/16 04:08:31;;;;;;;17.48;14.50;;;;;;;16.04;100.00;101893.91;4956354;28;20418;-80
2023/06/16 04:11:00;;;;;;;19.08;15.98;;;;;;;16.66;100.00;101888.34;4932724;28;20058;-79
2023/06/16 04:13:30;;;;;;;16.67;13.73;;;;;;;17.32;100.00;101879.94;4954306;28;20091;-80
2023/06/16 04:16:00;;;;;;;14.40;12.40;;;;;;;18.04;100.00;101870.38;4948808;29;20051;-80
2023/06/16 04:18:29;;;;;;;13.50;11.02;;;;;;;18.72;100.00;101874.84;4912497;29;20048;-80
2023/06/16 04:20:56;;;;;;;14.20;12.80;;;;;;;19.33;100.00;101873.88;4915306;28;20043;-81
2023/06/16 04:23:23;;;;;;;13.98;12.52;;;;;;;19.90;100.00;101875.56;4942219;28;20557;-80
2023/06/16 04:25:52;;;;;;;13.65;12.25;;;;;;;20.45;100.00;101870.88;4936191;29;20067;-81
2023/06/16 04:28:21;;;;;;;15.00;11.95;;;;;;;20.98;100.00;101873.25;4959450;28;20055;-80
2023/06/16 04:30:51;;;;;;;12.32;10.30;;;;;;;21.43;100.00;101879.28;4935143;29;20054;-81
2023/06/16 04:33:22;;;;;;;14.27;10.00;;;;;;;21.86;100.00;101885.34;4934603;29;20069;-80
2023/06/16 04:35:52;;;;;;;12.10;10.40;;;;;;;22.28;100.00;101886.88;4921597;28;20059;-81
2023/06/16 04:38:20;;;;;;;11.85;10.48;;;;;;;22.66;100.00;101874.97;4906818;28;20059;-81
2023/06/16 04:40:48;;;;;;;11.88;9.75;;;;;;;22.98;100.00;101873.06;4919742;29;20059;-80
2023/06/16 04:43:16;;;;;;;12.00;9.73;;;;;;;23.28;100.00;101876.59;4937609;28;20061;-80
2023/06/16 04:45:44;;;;;;;10.85;9.30;;;;;;;23.64;100.00;101878.06;4949641;29;20047;-80
2023/06/16 04:48:12;;;;;;;10.90;8.70;;;;;;;23.98;100.00;101877.75;4949726;28;20051;-80
2023/06/16 04:50:39;;;;;;;10.18;9.10;;;;;;;24.32;97.53;101866.59;4936282;28;20517;-81
2023/06/16 04:53:06;;;;;;;12.18;10.35;;;;;;;24.65;94.95;101860.88;4889552;29;20052;-80
2023/06/16 04:55:34;;;;;;;10.75;9.30;;;;;;;24.82;92.82;101864.69;4947959;28;20055;-81
2023/06/16 04:58:03;;;;;;;11.63;8.10;;;;;;;25.06;91.71;101857.41;4965490;28;20549;-81
2023/06/16 05:00:32;;;;;;;9.82;8.73;;;;;;;25.35;89.25;101855.34;4961106;28;20066;-81
2023/06/16 05:03:00;;;;;;;11.18;7.78;;;;;;;25.57;88.47;101855.28;4935781;29;20054;-81
2023/06/16 05:05:28;;;;;;;8.95;8.05;;;;;;;25.86;85.98;101854.88;4929222;28;20146;-80
2023/06/16 05:07:56;;;;;;;8.75;7.95;;;;;;;26.11;84.09;101852.94;4898714;29;20058;-81
2023/06/16 05:10:25;;;;;;;8.85;7.75;;;;;;;26.33;81.94;101850.94;4911811;28;20062;-81
2023/06/16 05:12:53;;;;;;;10.05;8.27;;;;;;;26.39;79.53;101853.38;4933636;29;20055;-81
2023/06/16 05:15:20;;;;;;;10.02;8.73;;;;;;;26.50;78.60;101851.97;4958575;28;20055;-80
2023/06/16 05:17:48;;;;;;;9.40;8.48;;;;;;;26.64;77.14;101846.81;4951492;29;20062;-80
2023/06/16 05:20:15;;;;;;;12.75;8.48;;;;;;;26.78;76.75;101855.13;4949364;29;20058;-79
2023/06/16 05:22:44;;;;;;;9.00;8.13;;;;;;;26.92;75.00;101845.44;4904921;28;20050;-81
2023/06/16 05:25:12;;;;;;;9.00;8.07;;;;;;;27.02;73.96;101853.03;4945131;28;20047;-81
2023/06/16 05:27:40;;;;;;;10.10;8.35;;;;;;;27.13;73.62;101849.78;4949240;28;20051;-80
2023/06/16 05:30:08;;;;;;;12.30;7.90;;;;;;;27.21;73.30;101861.09;4951800;28;20055;-80
2023/06/16 05:32:35;;;;;;;9.65;8.18;;;;;;;27.34;72.38;101852.41;4946011;29;20051;-80
2023/06/16 05:35:03;;;;;;;9.35;8.23;;;;;;;27.45;71.96;101854.53;4930988;28;20054;-81
2023/06/16 05:37:31;;;;;;;14.07;9.13;;;;;;;27.38;72.78;101848.56;4945479;28;20055;-81
2023/06/16 05:39:58;;;;;;;10.25;7.97;;;;;;;27.36;72.53;101848.63;4914641;28;20062;-80
2023/06/16 05:42:26;;;;;;;8.68;7.68;;;;;;;27.48;72.75;101854.38;4940429;28;20047;-80
2023/06/16 05:44:54;;;;;;;8.88;7.28;;;;;;;27.64;71.76;101851.72;4957710;28;20051;-80
2023/06/16 05:47:21;;;;;;;8.18;7.03;;;;;;;27.89;71.06;101863.03;4932673;29;20153;-80
2023/06/16 05:49:50;;;;;;;7.88;7.07;;;;;;;27.97;69.88;101860.78;4932976;28;20053;-81
2023/06/16 05:52:18;;;;;;;8.60;6.05;;;;;;;28.09;68.87;101855.66;4919171;29;20082;-80
2023/06/16 05:54:47;;;;;;;8.57;6.35;;;;;;;28.13;68.38;101863.56;4883425;28;20058;-81
2023/06/16 05:57:22;;;;;;;11.93;7.07;;;;;;;28.27;67.93;101853.78;4904680;28;20043;-79
2023/06/16 05:59:49;;;;;;;7.05;6.05;;;;;;;28.34;67.18;101856.06;4935407;28;20047;-77
2023/06/16 06:02:19;;;;;;;9.52;5.60;;;;;;;28.31;66.21;101852.66;4938542;28;20423;-77
2023/06/16 06:04:48;;;;;;;5.70;5.07;;;;;;;28.24;65.20;101857.50;4940159;28;20075;-77
2023/06/16 06:07:16;;;;;;;6.32;5.50;;;;;;;28.00;65.11;101855.22;4945224;29;20052;-77
2023/06/16 06:09:44;;;;;;;7.57;6.88;;;;;;;27.72;65.86;101854.91;4925843;28;20535;-77
2023/06/16 06:12:12;;;;;;;7.35;6.47;;;;;;;27.40;67.38;101855.63;4871341;28;20051;-78
2023/06/16 06:14:41;;;;;;;6.55;5.88;;;;;;;26.97;68.90;101854.22;4914748;28;20047;-78
2023/06/16 06:17:09;;;;;;;9.60;5.60;;;;;;;26.69;70.72;101852.00;4945645;28;20053;-76
2023/06/16 06:19:37;;;;;;;7.90;4.93;;;;;;;26.56;71.32;101859.78;4947760;29;20062;-76
2023/06/16 06:22:05;;;;;;;5.65;4.40;;;;;;;26.23;72.26;101855.03;4958965;28;20051;-77
2023/06/16 06:24:34;;;;;;;5.07;3.65;;;;;;;25.98;73.32;101852.59;4963413;28;20498;-77
2023/06/16 06:27:03;;;;;;;5.10;3.85;;;;;;;25.91;74.94;101860.06;4911928;28;20066;-79
2023/06/16 06:29:32;;;;;;;6.38;5.07;;;;;;;25.85;76.17;101857.66;4938813;28;20059;-77
2023/06/16 06:32:07;;;;;;;5.15;3.95;;;;;;;25.73;75.86;101858.19;4946947;28;20131;-77
2023/06/16 06:34:36;;;;;;;4.80;3.95;;;;;;;25.47;76.52;101858.41;4955495;28;20054;-77
2023/06/16 06:37:04;;;;;;;7.60;4.68;;;;;;;25.23;77.23;101865.72;4923694;29;20043;-76
2023/06/16 06:39:32;;;;;;;7.30;4.50;;;;;;;24.92;77.91;101865.22;4945146;29;20055;-76
2023/06/16 06:42:01;;;;;;;5.50;4.25;;;;;;;24.51;80.02;101866.78;4915655;28;20058;-76
2023/06/16 06:44:39;;;;;;;5.20;4.05;;;;;;;24.16;81.74;101869.94;4953763;28;20047;-77
2023/06/16 06:47:07;;;;;;;5.45;3.92;;;;;;;23.86;84.50;101875.53;4926454;28;20051;-76
2023/06/16 06:49:35;;;;;;;8.45;4.35;;;;;;;23.62;85.66;101883.50;4905415;28;20051;-77
2023/06/16 06:52:03;;;;;;;4.97;4.47;;;;;;;23.38;86.67;101876.28;4946950;28;20070;-76
2023/06/16 06:54:31;;;;;;;8.27;4.32;;;;;;;23.15;87.37;101880.63;4914287;28;20055;-77
2023/06/16 06:56:58;;;;;;;6.13;4.25;;;;;;;22.96;89.08;101877.63;4893278;28;20054;-76
2023/06/16 06:59:26;;;;;;;5.97;4.30;;;;;;;22.84;89.36;101881.59;4939670;28;20406;-76
2023/06/16 07:01:53;;;;;;;7.13;4.47;;;;;;;22.70;90.38;101875.75;4935599;28;20459;-77
2023/06/16 07:04:21;;;;;;;6.90;4.68;;;;;;;22.60;91.01;101871.63;4962065;28;20503;-77
2023/06/16 07:06:49;;;;;;;11.82;4.85;;;;;;;22.56;91.53;101881.56;4935248;28;20047;-76
2023/06/16 07:09:16;;;;;;;4.57;3.83;;;;;;;22.45;91.49;101872.97;4954475;28;20102;-76
2023/06/16 07:11:57;;;;;;;6.13;4.50;;;;;;;22.34;90.77;101884.00;4924829;28;20047;-76
2023/06/16 07:14:26;;;;;;;5.55;4.13;;;;;;;22.30;91.49;101887.72;4890988;28;20600;-77
2023/06/16 07:16:54;;;;;;;5.72;4.93;;;;;;;22.28;91.68;101889.56;4951093;28;20051;-76
2023/06/16 07:19:23;;;;;;;5.68;5.18;;;;;;;22.22;92.14;101887.03;4916347;29;20499;-77
2023/06/16 07:21:50;;;;;;;9.15;4.60;;;;;;;22.09;90.89;101887.38;4900615;28;20039;-77
2023/06/16 07:24:18;;;;;;;4.72;4.10;;;;;;;22.08;91.00;101888.31;4938070;28;20062;-77
2023/06/16 07:26:45;;;;;;;7.65;4.60;;;;;;;22.12;91.02;101889.97;4941526;28;20510;-77
2023/06/16 07:29:13;;;;;;;6.07;3.90;;;;;;;22.21;91.11;101886.13;4911994;28;20051;-77
2023/06/16 07:31:40;;;;;;;6.18;4.63;;;;;;;22.30;89.00;101901.16;4968829;28;20047;-77
2023/06/16 07:34:08;;;;;;;6.10;4.18;;;;;;;22.32;87.94;101893.91;4921941;29;20050;-77
2023/06/16 07:36:37;;;;;;;6.95;4.28;;;;;;;22.31;87.64;101890.38;4977434;28;20058;-77
2023/06/16 07:39:04;;;;;;;6.57;4.47;;;;;;;22.32;88.63;101896.59;4951893;28;20050;-77
2023/06/16 07:41:32;;;;;;;6.97;3.28;;;;;;;22.31;87.52;101905.59;4947723;28;20047;-80
2023/06/16 07:44:00;;;;;;;4.28;3.95;;;;;;;22.33;86.78;101896.56;4906502;28;20050;-77
2023/06/16 07:46:30;;;;;;;5.75;3.42;;;;;;;22.32;83.87;101894.78;4928940;29;20541;-78
2023/06/16 07:48:57;;;;;;;4.15;3.40;;;;;;;22.27;81.38;101901.22;4953001;28;20051;-76
2023/06/16 07:51:26;;;;;;;5.78;3.15;;;;;;;22.24;82.91;101895.94;4961975;28;20055;-78
2023/06/16 07:53:54;;;;;;;3.47;3.17;;;;;;;22.24;83.05;101895.94;4939055;28;20046;-77
2023/06/16 07:56:21;;;;;;;4.63;3.08;;;;;;;22.26;81.21;101894.09;4936279;28;20848;-77
2023/06/16 07:58:49;;;;;;;4.43;3.40;;;;;;;22.33;81.30;101896.56;4905292;28;20429;-76
2023/06/16 08:01:18;;;;;;;3.35;2.80;;;;;;;22.38;78.13;101894.63;4936203;28;20075;-77
2023/06/16 08:03:46;;;;;;;3.58;2.88;;;;;;;22.33;76.40;101899.25;4942485;28;20054;-78
2023/06/16 08:06:15;;;;;;;6.03;2.88;;;;;;;22.27;73.94;101895.84;4940591;28;20051;-78
2023/06/16 08:08:43;;;;;;;7.25;2.53;;;;;;;22.19;71.53;101894.25;4937695;28;20044;-77
2023/06/16 08:11:14;;;;;;;2.55;2.35;;;;;;;22.12;69.02;101895.34;4924258;28;20086;-79
2023/06/16 08:13:44;;;;;;;2.97;2.08;;;;;;;22.12;67.13;101889.97;4923304;28;20051;-77
2023/06/16 08:16:11;;;;;;;3.30;2.38;;;;;;;22.15;64.60;101887.19;4920475;28;20047;-77
2023/06/16 08:18:39;;;;;;;5.30;2.05;;;;;;;22.14;63.85;101885.44;4952265;28;20051;-77
2023/06/16 08:21:07;;;;;;;2.50;2.30;;;;;;;22.18;61.65;101889.81;4947930;28;20074;-77
2023/06/16 08:23:35;;;;;;;5.15;2.20;;;;;;;22.16;59.61;101888.09;4935002;28;20063;-77
2023/06/16 08:26:05;;;;;;;2.97;2.17;;;;;;;22.16;55.84;101888.09;4942252;28;20051;-78
2023/06/16 08:28:32;;;;;;;3.60;2.30;;;;;;;22.18;53.85;101895.16;4926267;29;20047;-78
2023/06/16 08:31:00;;;;;;;5.18;2.20;;;;;;;22.15;53.49;101897.94;4889307;28;20067;-77
2023/06/16 08:33:27;;;;;;;5.90;2.42;;;;;;;22.22;54.19;101897.78;4893831;29;20063;-77
2023/06/16 08:35:55;;;;;;;2.67;2.25;;;;;;;22.28;55.41;101890.44;4931331;28;20112;-78
2023/06/16 08:38:22;;;;;;;4.30;2.05;;;;;;;22.29;54.15;101894.91;4949773;28;20035;-77
2023/06/16 08:40:50;;;;;;;3.95;1.95;;;;;;;22.29;54.66;101892.22;4902436;28;20054;-77
2023/06/16 08:43:19;;;;;;;4.80;2.00;;;;;;;22.33;52.58;101890.31;4936247;28;20073;-77
2023/06/16 08:45:48;;;;;;;4.40;1.83;;;;;;;22.36;51.81;101891.13;4930328;28;20047;-78
2023/06/16 08:48:16;;;;;;;5.97;2.40;;;;;;;22.34;49.44;101892.97;4924873;28;20078;-77
2023/06/16 08:50:44;;;;;;;2.60;1.70;;;;;;;22.25;49.76;101890.56;4953322;28;20536;-77
2023/06/16 08:53:12;;;;;;;5.07;2.08;;;;;;;22.27;50.51;101891.38;4937402;28;20506;-78
2023/06/16 08:55:40;;;;;;;4.25;1.70;;;;;;;22.26;51.51;101878.88;4954487;28;20055;-78
2023/06/16 08:58:13;;;;;;;3.47;1.63;;;;;;;22.28;52.86;101879.69;4931012;28;20651;-79
2023/06/16 09:00:41;;;;;;;8.82;2.45;;;;;;;22.34;52.03;101878.63;4936706;28;20047;-79
2023/06/16 09:03:09;;;;;;;5.80;2.22;;;;;;;22.36;51.43;101874.09;4916363;28;20055;-79
2023/06/16 09:05:38;;;;;;;2.50;2.22;;;;;;;22.36;51.17;101877.69;4946916;29;20062;-79
2023/06/16 09:08:05;;;;;;;2.50;2.03;;;;;;;22.41;52.39;101880.22;4945568;28;20597;-78
2023/06/16 09:10:34;;;;;;;4.65;2.58;;;;;;;22.46;54.12;101877.41;4966339;28;20561;-78
2023/06/16 09:13:04;;;;;;;3.10;1.50;;;;;;;22.47;55.63;101868.41;4937328;28;20054;-79
2023/06/16 09:15:36;;;;;;;5.40;2.25;;;;;;;22.52;56.13;101864.66;4956794;28;20514;-79
2023/06/16 09:18:07;;;;;;;2.20;2.00;;;;;;;22.56;56.10;101876.19;4917005;28;20055;-78
2023/06/16 09:20:39;;;;;;;2.53;1.85;;;;;;;22.58;55.95;101869.84;4928743;29;20047;-78
2023/06/16 09:23:08;;;;;;;4.28;1.90;;;;;;;22.67;57.09;101870.50;4936143;28;20062;-78
2023/06/16 09:25:39;;;;;;;2.72;1.85;;;;;;;22.70;55.75;101865.91;4951927;28;20051;-79
2023/06/16 09:28:09;;;;;;;3.67;1.83;;;;;;;22.62;56.16;101865.25;4912044;28;20458;-79
2023/06/16 09:30:38;;;;;;;3.25;1.75;;;;;;;22.55;55.01;101858.31;4919221;29;20047;-79
2023/06/16 09:33:11;;;;;;;3.28;1.75;;;;;;;22.57;54.87;101862.72;4897186;28;20054;-80
2023/06/16 09:35:41;;;;;;;1.75;1.65;;;;;;;22.61;54.10;101865.28;4920371;29;20054;-78
2023/06/16 09:38:10;;;;;;;3.30;2.08;;;;;;;22.64;53.16;101871.47;4912427;28;20058;-78
2023/06/16 09:40:39;;;;;;;2.38;1.60;;;;;;;22.66;53.43;101882.16;4926519;29;20054;-78
2023/06/16 09:43:09;;;;;;;4.75;1.67;;;;;;;22.69;53.73;101876.72;4942305;29;20176;-80
2023/06/16 09:45:37;;;;;;;3.53;1.80;;;;;;;22.74;54.96;101883.69;4935381;28;20051;-80
2023/06/16 09:48:08;;;;;;;8.68;2.28;;;;;;;22.74;55.84;101886.38;4916167;28;20990;-78
2023/06/16 09:50:37;;;;;;;4.82;2.00;;;;;;;22.81;55.96;101875.44;4943503;28;20147;-78
2023/06/16 09:53:07;;;;;;;1.75;1.65;;;;;;;22.88;54.16;101882.38;4934532;28;20556;-79
2023/06/16 09:55:40;;;;;;;2.27;1.50;;;;;;;22.96;52.17;101883.88;4962769;28;20061;-78
2023/06/16 09:58:08;;;;;;;3.13;1.60;;;;;;;22.97;52.32;101879.41;4945807;29;20043;-79
2023/06/16 10:00:37;;;;;;;1.80;1.58;;;;;;;23.00;53.16;101879.28;4928987;28;20060;-79
2023/06/16 10:03:09;;;;;;;4.83;1.70;;;;;;;23.07;51.80;101882.69;4899789;28;20051;-78
2023/06/16 10:05:40;;;;;;;2.20;1.80;;;;;;;23.11;50.78;101884.34;4938966;28;20050;-77
2023/06/16 10:08:08;;;;;;;;;;;;;;;23.16;48.62;101882.41;4919537;28;20050;-78
2023/06/16 10:10:41;;;;;;;2.97;1.60;;;;;;;23.23;50.18;101878.59;4962227;28;19948;-79
2023/06/16 10:13:12;;;;;;;2.67;1.77;;;;;;;23.29;48.93;101880.16;4946166;29;20035;-80
2023/06/16 10:15:42;;;;;;;4.75;1.85;;;;;;;23.28;47.67;101875.72;4947642;28;20084;-79
2023/06/16 10:18:12;;;;;;;2.17;1.60;;;;;;;23.30;46.71;101873.84;4941710;28;20454;-79
2023/06/16 10:20:41;;;;;;;2.75;1.50;;;;;;;23.33;47.08;101871.94;4893085;29;20051;-79
2023/06/16 10:23:08;;;;;;;5.97;3.10;;;;;;;23.36;45.83;101857.50;4938495;29;20050;-79
2023/06/16 10:25:40;;;;;;;3.42;1.65;;;;;;;23.38;44.98;101862.84;4939093;28;20458;-79
2023/06/16 10:28:14;;;;;;;3.40;1.70;;;;;;;23.42;44.04;101859.09;4936129;29;20762;-81
2023/06/16 10:30:43;;;;;;;2.10;1.33;;;;;;;23.46;43.23;101864.34;4945510;28;20499;-80
2023/06/16 10:33:17;;;;;;;1.60;1.50;;;;;;;23.57;43.04;101863.06;4957456;28;20497;-79
2023/06/16 10:35:53;;;;;;;2.78;1.67;;;;;;;23.61;39.16;101864.72;4894945;29;20058;-81
2023/06/16 10:38:41;;;;;;;3.45;1.77;;;;;;;23.67;39.83;101865.41;4940186;29;20541;-81
2023/06/16 10:41:14;;;;;;;3.15;1.55;;;;;;;23.72;40.35;101855.34;4939332;28;20051;-79
2023/06/16 10:43:43;;;;;;;4.32;1.55;;;;;;;23.73;40.23;101866.97;4900020;29;20095;-79
2023/06/16 10:46:30;;;;;;;2.10;1.63;;;;;;;23.77;39.23;101865.06;4947528;28;20050;-78
2023/06/16 10:49:05;;;;;;;4.50;1.92;;;;;;;23.81;37.98;101861.34;4940377;28;20540;-79
2023/06/16 10:51:50;;;;;;;2.78;1.80;;;;;;;23.76;37.10;101872.25;4908523;28;20075;-79
2023/06/16 10:54:31;;;;;;;1.95;1.73;;;;;;;23.78;38.74;101861.41;4951400;28;20063;-79
2023/06/16 10:57:09;;;;;;;2.10;1.80;;;;;;;23.79;39.63;101861.41;4933301;28;20387;-78
2023/06/16 11:00:06;;;;;;;2.75;1.75;;;;;;;23.84;40.85;101863.94;4950203;29;20054;-79
2023/06/16 11:02:34;;;;;;;3.13;1.60;;;;;;;23.89;41.12;101861.94;4962990;28;20058;-79
2023/06/16 11:05:12;;;;;;;3.42;1.75;;;;;;;23.99;40.75;101858.00;4932131;28;20954;-78
2023/06/16 11:08:17;;;;;;;2.40;1.50;;;;;;;24.03;39.49;101851.56;4933279;29;20058;-78
2023/06/16 11:10:49;;;;;;;3.08;1.52;;;;;;;24.10;40.62;101847.72;4933258;28;20442;-78
2023/06/16 11:13:26;;;;;;;3.80;1.48;;;;;;;24.18;40.24;101852.81;4918417;28;20431;-78
2023/06/16 11:15:54;;;;;;;2.00;1.55;;;;;;;24.13;40.86;101844.88;4928078;28;20050;-79
2023/06/16 11:18:24;;;;;;;3.08;1.58;;;;;;;24.05;40.16;101847.00;4938868;29;20116;-79
2023/06/16 11:20:59;;;;;;;1.93;1.70;;;;;;;24.08;39.93;101849.59;4928255;28;20052;-78
2023/06/16 11:23:28;;;;;;;2.00;1.77;;;;;;;24.21;39.60;101849.09;4953532;28;20063;-78
2023/06/16 11:26:10;;;;;;;2.55;1.60;;;;;;;24.30;37.24;101837.97;4938407;28;20536;-77
2023/06/16 11:28:44;;;;;;;1.83;1.40;;;;;;;24.35;35.37;101838.69;4937647;28;20054;-77
2023/06/16 11:31:13;;;;;;;1.98;1.42;;;;;;;24.30;35.33;101829.91;4937128;29;20055;-77
2023/06/16 11:33:41;;;;;;;2.15;1.85;;;;;;;24.25;35.32;101838.16;4958268;28;20047;-78